Colden, New York
Current Conditions -  °F | °C
As of 11:54 AM on Thursday 27 Nov 2014 (Local Time) from KBUF Reporting Station
Light Snow Light Snow  
Wind Chill: 23°   Ceiling: 1600
Heat Index: 31°   Visibility: 9mi
Dew Point: 25°   Wind: 8mph
Humidity: 79%   Direction: 220°SW
Pressure: 30.05"   Gusts: NA
Location:  42.64°N, 78.68°W
Report Text: KBUF 271654Z 22007KT 9SM -SN BKN016 BKN024 BKN038 M01/M04 A3005 RMK AO2 SLP185 PCPN VRY LGT P0000 T10061039
Loading
Personal Weather Stations






























Interactive Weather Map New forecast layout! Learn more

10-Day Weather Forecast

Advertisements
Track Severe Weather on mobile